sensor_id;sensor_type;location;lat;lon;timestamp;pressure;altitude;pressure_sealevel;temperature;humidity
69058;BME280;56128;37.534;-122.308;2023-06-26T00:00:59;101646.81;;;17.12;100.00
69058;BME280;56128;37.534;-122.308;2023-06-26T00:03:25;101642.84;;;17.07;100.00
69058;BME280;56128;37.534;-122.308;2023-06-26T00:05:51;101639.66;;;16.92;100.00
69058;BME280;56128;37.534;-122.308;2023-06-26T00:08:17;101634.63;;;16.87;100.00
69058;BME280;56128;37.534;-122.308;2023-06-26T00:10:44;101635.75;;;16.84;100.00
69058;BME280;56128;37.534;-122.308;2023-06-26T00:13:11;101639.44;;;16.83;100.00
69058;BME280;56128;37.534;-122.308;2023-06-26T00:15:38;101634.72;;;16.76;100.00
69058;BME280;56128;37.534;-122.308;2023-06-26T00:18:05;101633.41;;;16.70;100.00
69058;BME280;56128;37.534;-122.308;2023-06-26T00:20:32;101627.56;;;16.65;100.00
69058;BME280;56128;37.534;-122.308;2023-06-26T00:23:00;101628.00;;;16.60;100.00
69058;BME280;56128;37.534;-122.308;2023-06-26T00:25:26;101631.47;;;16.51;100.00
69058;BME280;56128;37.534;-122.308;2023-06-26T00:27:52;101632.47;;;16.50;100.00
69058;BME280;56128;37.534;-122.308;2023-06-26T00:30:18;101635.84;;;16.42;100.00
69058;BME280;56128;37.534;-122.308;2023-06-26T00:32:44;101632.41;;;16.40;100.00
69058;BME280;56128;37.534;-122.308;2023-06-26T00:35:11;101636.31;;;16.26;100.00
69058;BME280;56128;37.534;-122.308;2023-06-26T00:37:37;101630.66;;;16.29;100.00
69058;BME280;56128;37.534;-122.308;2023-06-26T00:40:03;101637.94;;;16.38;100.00
69058;BME280;56128;37.534;-122.308;2023-06-26T00:42:31;101629.47;;;16.22;100.00
69058;BME280;56128;37.534;-122.308;2023-06-26T00:44:57;101634.22;;;16.09;100.00
69058;BME280;56128;37.534;-122.308;2023-06-26T00:47:24;101625.88;;;15.90;100.00
69058;BME280;56128;37.534;-122.308;2023-06-26T00:49:51;101626.03;;;15.78;100.00
69058;BME280;56128;37.534;-122.308;2023-06-26T00:52:18;101631.47;;;15.66;100.00
69058;BME280;56128;37.534;-122.308;2023-06-26T00:54:44;101634.69;;;15.60;100.00
69058;BME280;56128;37.534;-122.308;2023-06-26T00:57:10;101630.31;;;15.48;100.00
69058;BME280;56128;37.534;-122.308;2023-06-26T00:59:37;101634.41;;;15.31;100.00
69058;BME280;56128;37.534;-122.308;2023-06-26T01:02:04;101630.47;;;15.35;100.00
69058;BME280;56128;37.534;-122.308;2023-06-26T01:04:31;101625.44;;;15.41;100.00
69058;BME280;56128;37.534;-122.308;2023-06-26T01:06:59;101627.66;;;15.36;100.00
69058;BME280;56128;37.534;-122.308;2023-06-26T01:09:26;101628.88;;;15.44;100.00
69058;BME280;56128;37.534;-122.308;2023-06-26T01:11:52;101624.19;;;15.46;100.00
69058;BME280;56128;37.534;-122.308;2023-06-26T01:14:19;101634.84;;;15.47;100.00
69058;BME280;56128;37.534;-122.308;2023-06-26T01:16:45;101621.34;;;15.47;100.00
69058;BME280;56128;37.534;-122.308;2023-06-26T01:19:24;101628.09;;;15.53;100.00
69058;BME280;56128;37.534;-122.308;2023-06-26T01:21:57;101618.50;;;15.60;100.00
69058;BME280;56128;37.534;-122.308;2023-06-26T01:24:25;101628.69;;;15.56;100.00
69058;BME280;56128;37.534;-122.308;2023-06-26T01:26:59;101629.19;;;15.50;100.00
69058;BME280;56128;37.534;-122.308;2023-06-26T01:29:26;101619.53;;;15.48;100.00
69058;BME280;56128;37.534;-122.308;2023-06-26T01:31:54;101625.66;;;15.50;100.00
69058;BME280;56128;37.534;-122.308;2023-06-26T01:34:21;101624.03;;;15.58;100.00
69058;BME280;56128;37.534;-122.308;2023-06-26T01:36:47;101631.25;;;15.58;100.00
69058;BME280;56128;37.534;-122.308;2023-06-26T01:39:19;101626.13;;;15.55;100.00
69058;BME280;56128;37.534;-122.308;2023-06-26T01:41:45;101625.13;;;15.56;100.00
69058;BME280;56128;37.534;-122.308;2023-06-26T01:44:21;101625.72;;;15.59;100.00
69058;BME280;56128;37.534;-122.308;2023-06-26T01:47:01;101631.53;;;15.55;100.00
69058;BME280;56128;37.534;-122.308;2023-06-26T01:52:28;101624.44;;;15.42;100.00
69058;BME280;56128;37.534;-122.308;2023-06-26T01:57:56;101618.66;;;15.15;100.00
69058;BME280;56128;37.534;-122.308;2023-06-26T02:00:23;101621.09;;;15.06;100.00
69058;BME280;56128;37.534;-122.308;2023-06-26T02:02:50;101630.66;;;15.10;100.00
69058;BME280;56128;37.534;-122.308;2023-06-26T02:05:16;101623.06;;;15.04;100.00
69058;BME280;56128;37.534;-122.308;2023-06-26T02:07:42;101621.88;;;14.97;100.00
69058;BME280;56128;37.534;-122.308;2023-06-26T02:10:09;101613.41;;;14.90;100.00
69058;BME280;56128;37.534;-122.308;2023-06-26T02:12:37;101607.19;;;14.90;100.00
69058;BME280;56128;37.534;-122.308;2023-06-26T02:15:04;101604.97;;;14.84;100.00
69058;BME280;56128;37.534;-122.308;2023-06-26T02:17:30;101613.41;;;14.79;100.00
69058;BME280;56128;37.534;-122.308;2023-06-26T02:19:57;101603.41;;;14.70;100.00
69058;BME280;56128;37.534;-122.308;2023-06-26T02:22:23;101611.63;;;14.68;100.00
69058;BME280;56128;37.534;-122.308;2023-06-26T02:24:49;101610.34;;;14.61;100.00
69058;BME280;56128;37.534;-122.308;2023-06-26T02:27:15;101613.19;;;14.59;100.00
69058;BME280;56128;37.534;-122.308;2023-06-26T02:29:42;101608.38;;;14.52;100.00
69058;BME280;56128;37.534;-122.308;2023-06-26T02:32:08;101606.69;;;14.51;100.00
69058;BME280;56128;37.534;-122.308;2023-06-26T02:34:35;101620.38;;;14.48;100.00
69058;BME280;56128;37.534;-122.308;2023-06-26T02:37:02;101606.28;;;14.33;100.00
69058;BME280;56128;37.534;-122.308;2023-06-26T02:39:28;101607.38;;;14.30;100.00
69058;BME280;56128;37.534;-122.308;2023-06-26T02:41:54;101615.22;;;14.22;100.00
69058;BME280;56128;37.534;-122.308;2023-06-26T02:44:20;101622.06;;;14.15;100.00
69058;BME280;56128;37.534;-122.308;2023-06-26T02:46:47;101623.88;;;14.14;100.00
69058;BME280;56128;37.534;-122.308;2023-06-26T02:49:13;101619.84;;;14.08;100.00
69058;BME280;56128;37.534;-122.308;2023-06-26T02:51:39;101618.97;;;14.08;100.00
69058;BME280;56128;37.534;-122.308;2023-06-26T02:54:06;101609.91;;;14.09;100.00
69058;BME280;56128;37.534;-122.308;2023-06-26T02:56:35;101604.78;;;14.06;100.00
69058;BME280;56128;37.534;-122.308;2023-06-26T02:59:01;101612.25;;;14.02;100.00
69058;BME280;56128;37.534;-122.308;2023-06-26T03:01:27;101613.44;;;13.87;100.00
69058;BME280;56128;37.534;-122.308;2023-06-26T03:03:54;101611.09;;;13.82;100.00
69058;BME280;56128;37.534;-122.308;2023-06-26T03:06:20;101610.47;;;13.78;100.00
69058;BME280;56128;37.534;-122.308;2023-06-26T03:08:46;101609.59;;;13.67;100.00
69058;BME280;56128;37.534;-122.308;2023-06-26T03:11:13;101606.59;;;13.58;100.00
69058;BME280;56128;37.534;-122.308;2023-06-26T03:13:39;101599.75;;;13.54;100.00
69058;BME280;56128;37.534;-122.308;2023-06-26T03:16:05;101604.56;;;13.38;100.00
69058;BME280;56128;37.534;-122.308;2023-06-26T03:18:31;101604.88;;;13.33;100.00
69058;BME280;56128;37.534;-122.308;2023-06-26T03:20:59;101605.19;;;13.28;100.00
69058;BME280;56128;37.534;-122.308;2023-06-26T03:23:25;101606.88;;;13.18;100.00
69058;BME280;56128;37.534;-122.308;2023-06-26T03:25:51;101600.84;;;13.14;100.00
69058;BME280;56128;37.534;-122.308;2023-06-26T03:28:18;101600.09;;;13.12;100.00
69058;BME280;56128;37.534;-122.308;2023-06-26T03:30:44;101597.66;;;13.09;100.00
69058;BME280;56128;37.534;-122.308;2023-06-26T03:33:10;101596.44;;;13.13;100.00
69058;BME280;56128;37.534;-122.308;2023-06-26T03:35:37;101607.56;;;13.09;100.00
69058;BME280;56128;37.534;-122.308;2023-06-26T03:38:04;101611.28;;;13.06;100.00
69058;BME280;56128;37.534;-122.308;2023-06-26T03:40:30;101604.22;;;13.05;100.00
69058;BME280;56128;37.534;-122.308;2023-06-26T03:42:57;101608.34;;;12.98;100.00
69058;BME280;56128;37.534;-122.308;2023-06-26T03:45:23;101614.78;;;12.95;100.00
69058;BME280;56128;37.534;-122.308;2023-06-26T03:47:49;101613.19;;;12.93;100.00
69058;BME280;56128;37.534;-122.308;2023-06-26T03:50:16;101619.97;;;12.86;100.00
69058;BME280;56128;37.534;-122.308;2023-06-26T03:52:42;101620.19;;;12.82;100.00
69058;BME280;56128;37.534;-122.308;2023-06-26T03:55:08;101612.59;;;12.76;100.00
69058;BME280;56128;37.534;-122.308;2023-06-26T03:57:35;101617.19;;;12.74;100.00
69058;BME280;56128;37.534;-122.308;2023-06-26T04:00:01;101618.59;;;12.67;100.00
69058;BME280;56128;37.534;-122.308;2023-06-26T04:02:31;101617.09;;;12.63;100.00
69058;BME280;56128;37.534;-122.308;2023-06-26T04:04:57;101623.31;;;12.63;100.00
69058;BME280;56128;37.534;-122.308;2023-06-26T04:07:23;101617.53;;;12.57;100.00
69058;BME280;56128;37.534;-122.308;2023-06-26T04:09:50;101626.03;;;12.50;100.00
69058;BME280;56128;37.534;-122.308;2023-06-26T04:12:16;101626.03;;;12.50;100.00
69058;BME280;56128;37.534;-122.308;2023-06-26T04:14:42;101630.44;;;12.52;100.00
69058;BME280;56128;37.534;-122.308;2023-06-26T04:17:09;101635.69;;;12.53;100.00
69058;BME280;56128;37.534;-122.308;2023-06-26T04:19:36;101634.63;;;12.56;100.00
69058;BME280;56128;37.534;-122.308;2023-06-26T04:22:02;101635.38;;;12.58;100.00
69058;BME280;56128;37.534;-122.308;2023-06-26T04:24:28;101648.91;;;12.56;100.00
69058;BME280;56128;37.534;-122.308;2023-06-26T04:26:55;101648.81;;;12.58;100.00
69058;BME280;56128;37.534;-122.308;2023-06-26T04:29:28;101644.28;;;12.58;100.00
69058;BME280;56128;37.534;-122.308;2023-06-26T04:31:54;101655.00;;;12.58;100.00
69058;BME280;56128;37.534;-122.308;2023-06-26T04:34:25;101662.09;;;12.59;100.00
69058;BME280;56128;37.534;-122.308;2023-06-26T04:36:51;101660.63;;;12.55;100.00
69058;BME280;56128;37.534;-122.308;2023-06-26T04:39:17;101656.53;;;12.49;100.00
69058;BME280;56128;37.534;-122.308;2023-06-26T04:41:44;101668.34;;;12.47;100.00
69058;BME280;56128;37.534;-122.308;2023-06-26T04:44:11;101670.06;;;12.48;100.00
69058;BME280;56128;37.534;-122.308;2023-06-26T04:46:37;101673.38;;;12.52;100.00
69058;BME280;56128;37.534;-122.308;2023-06-26T04:49:10;101660.16;;;12.48;100.00
69058;BME280;56128;37.534;-122.308;2023-06-26T04:51:36;101669.22;;;12.47;100.00
69058;BME280;56128;37.534;-122.308;2023-06-26T04:54:10;101672.09;;;12.44;100.00
69058;BME280;56128;37.534;-122.308;2023-06-26T04:56:37;101676.63;;;12.44;100.00
69058;BME280;56128;37.534;-122.308;2023-06-26T04:59:05;101676.72;;;12.42;100.00
69058;BME280;56128;37.534;-122.308;2023-06-26T05:01:32;101677.69;;;12.41;100.00
69058;BME280;56128;37.534;-122.308;2023-06-26T05:04:00;101684.03;;;12.40;100.00
69058;BME280;56128;37.534;-122.308;2023-06-26T05:06:28;101673.28;;;12.40;100.00
69058;BME280;56128;37.534;-122.308;2023-06-26T05:08:54;101675.19;;;12.38;100.00
69058;BME280;56128;37.534;-122.308;2023-06-26T05:11:20;101674.47;;;12.36;100.00
69058;BME280;56128;37.534;-122.308;2023-06-26T05:13:46;101683.59;;;12.33;100.00
69058;BME280;56128;37.534;-122.308;2023-06-26T05:16:12;101690.00;;;12.31;100.00
69058;BME280;56128;37.534;-122.308;2023-06-26T05:18:38;101687.44;;;12.29;100.00
69058;BME280;56128;37.534;-122.308;2023-06-26T05:21:05;101686.28;;;12.33;100.00
69058;BME280;56128;37.534;-122.308;2023-06-26T05:23:32;101686.34;;;12.32;100.00
69058;BME280;56128;37.534;-122.308;2023-06-26T05:26:00;101686.47;;;12.30;100.00
69058;BME280;56128;37.534;-122.308;2023-06-26T05:28:27;101689.38;;;12.27;100.00
69058;BME280;56128;37.534;-122.308;2023-06-26T05:31:00;101692.06;;;12.27;100.00
69058;BME280;56128;37.534;-122.308;2023-06-26T05:33:27;101688.50;;;12.27;100.00
69058;BME280;56128;37.534;-122.308;2023-06-26T05:35:54;101689.47;;;12.26;100.00
69058;BME280;56128;37.534;-122.308;2023-06-26T05:38:21;101692.16;;;12.26;100.00
69058;BME280;56128;37.534;-122.308;2023-06-26T05:40:47;101697.50;;;12.26;100.00
69058;BME280;56128;37.534;-122.308;2023-06-26T05:43:14;101694.09;;;12.24;100.00
69058;BME280;56128;37.534;-122.308;2023-06-26T05:45:40;101687.78;;;12.25;100.00
69058;BME280;56128;37.534;-122.308;2023-06-26T05:48:06;101693.03;;;12.26;100.00
69058;BME280;56128;37.534;-122.308;2023-06-26T05:50:33;101700.00;;;12.29;100.00
69058;BME280;56128;37.534;-122.308;2023-06-26T05:53:00;101696.56;;;12.27;100.00
69058;BME280;56128;37.534;-122.308;2023-06-26T05:55:28;101704.72;;;12.25;100.00
69058;BME280;56128;37.534;-122.308;2023-06-26T05:57:57;101688.91;;;12.21;100.00
69058;BME280;56128;37.534;-122.308;2023-06-26T06:00:26;101695.72;;;12.26;100.00
69058;BME280;56128;37.534;-122.308;2023-06-26T06:02:52;101694.09;;;12.24;100.00
69058;BME280;56128;37.534;-122.308;2023-06-26T06:05:20;101701.25;;;12.23;100.00
69058;BME280;56128;37.534;-122.308;2023-06-26T06:07:47;101699.53;;;12.22;100.00
69058;BME280;56128;37.534;-122.308;2023-06-26T06:10:14;101698.59;;;12.23;100.00
69058;BME280;56128;37.534;-122.308;2023-06-26T06:12:40;101698.59;;;12.23;100.00
69058;BME280;56128;37.534;-122.308;2023-06-26T06:15:07;101696.84;;;12.22;100.00
69058;BME280;56128;37.534;-122.308;2023-06-26T06:17:33;101696.97;;;12.21;100.00
69058;BME280;56128;37.534;-122.308;2023-06-26T06:19:59;101689.03;;;12.19;100.00
69058;BME280;56128;37.534;-122.308;2023-06-26T06:22:25;101687.97;;;12.22;100.00
69058;BME280;56128;37.534;-122.308;2023-06-26T06:24:52;101696.97;;;12.21;100.00
69058;BME280;56128;37.534;-122.308;2023-06-26T06:27:18;101689.34;;;12.14;100.00
69058;BME280;56128;37.534;-122.308;2023-06-26T06:29:44;101695.47;;;12.16;100.00
69058;BME280;56128;37.534;-122.308;2023-06-26T06:32:10;101699.00;;;12.17;100.00
69058;BME280;56128;37.534;-122.308;2023-06-26T06:34:37;101690.00;;;12.18;100.00
69058;BME280;56128;37.534;-122.308;2023-06-26T06:37:03;101683.78;;;12.17;100.00
69058;BME280;56128;37.534;-122.308;2023-06-26T06:39:30;101690.00;;;12.18;100.00
69058;BME280;56128;37.534;-122.308;2023-06-26T06:41:56;101686.34;;;12.19;100.00
69058;BME280;56128;37.534;-122.308;2023-06-26T06:44:22;101681.22;;;12.16;100.00
69058;BME280;56128;37.534;-122.308;2023-06-26T06:46:48;101688.50;;;12.14;100.00
69058;BME280;56128;37.534;-122.308;2023-06-26T06:49:15;101692.78;;;12.16;100.00
69058;BME280;56128;37.534;-122.308;2023-06-26T06:51:41;101683.00;;;12.15;100.00
69058;BME280;56128;37.534;-122.308;2023-06-26T06:54:07;101689.25;;;12.16;100.00
69058;BME280;56128;37.534;-122.308;2023-06-26T06:56:33;101685.81;;;12.14;100.00
69058;BME280;56128;37.534;-122.308;2023-06-26T06:59:00;101680.09;;;12.06;100.00
69058;BME280;56128;37.534;-122.308;2023-06-26T07:01:26;101680.00;;;12.07;100.00
69058;BME280;56128;37.534;-122.308;2023-06-26T07:03:52;101671.38;;;12.02;100.00
69058;BME280;56128;37.534;-122.308;2023-06-26T07:06:19;101671.63;;;11.99;100.00
69058;BME280;56128;37.534;-122.308;2023-06-26T07:08:45;101685.03;;;11.99;100.00
69058;BME280;56128;37.534;-122.308;2023-06-26T07:11:11;101685.03;;;11.99;100.00
69058;BME280;56128;37.534;-122.308;2023-06-26T07:13:37;101682.56;;;11.96;100.00
69058;BME280;56128;37.534;-122.308;2023-06-26T07:16:04;101673.84;;;11.92;100.00
69058;BME280;56128;37.534;-122.308;2023-06-26T07:18:30;101668.34;;;11.94;100.00
69058;BME280;56128;37.534;-122.308;2023-06-26T07:20:57;101671.88;;;11.94;100.00
69058;BME280;56128;37.534;-122.308;2023-06-26T07:23:23;101677.25;;;11.94;100.00
69058;BME280;56128;37.534;-122.308;2023-06-26T07:25:49;101670.06;;;11.95;100.00
69058;BME280;56128;37.534;-122.308;2023-06-26T07:28:15;101671.03;;;11.94;100.00
69058;BME280;56128;37.534;-122.308;2023-06-26T07:30:42;101662.88;;;11.95;100.00
69058;BME280;56128;37.534;-122.308;2023-06-26T07:33:08;101661.97;;;11.96;100.00
69058;BME280;56128;37.534;-122.308;2023-06-26T07:35:34;101660.13;;;11.97;100.00
69058;BME280;56128;37.534;-122.308;2023-06-26T07:38:00;101664.53;;;11.98;100.00
69058;BME280;56128;37.534;-122.308;2023-06-26T07:40:27;101653.91;;;11.96;100.00
69058;BME280;56128;37.534;-122.308;2023-06-26T07:42:53;101652.06;;;11.97;100.00
69058;BME280;56128;37.534;-122.308;2023-06-26T07:45:20;101651.31;;;11.95;100.00
69058;BME280;56128;37.534;-122.308;2023-06-26T07:47:46;101650.16;;;11.99;100.00
69058;BME280;56128;37.534;-122.308;2023-06-26T07:50:12;101650.38;;;11.96;100.00
69058;BME280;56128;37.534;-122.308;2023-06-26T07:52:41;101653.06;;;11.96;100.00
69058;BME280;56128;37.534;-122.308;2023-06-26T07:55:07;101652.94;;;11.97;100.00
69058;BME280;56128;37.534;-122.308;2023-06-26T07:57:34;101646.13;;;11.92;100.00
69058;BME280;56128;37.534;-122.308;2023-06-26T08:00:00;101640.56;;;11.95;100.00
69058;BME280;56128;37.534;-122.308;2023-06-26T08:02:26;101632.34;;;11.98;100.00
69058;BME280;56128;37.534;-122.308;2023-06-26T08:04:52;101641.25;;;11.98;100.00
69058;BME280;56128;37.534;-122.308;2023-06-26T08:07:19;101643.06;;;11.98;100.00
69058;BME280;56128;37.534;-122.308;2023-06-26T08:09:45;101633.50;;;11.94;100.00
69058;BME280;56128;37.534;-122.308;2023-06-26T08:12:11;101648.44;;;11.98;100.00
69058;BME280;56128;37.534;-122.308;2023-06-26T08:14:37;101638.66;;;11.97;100.00
69058;BME280;56128;37.534;-122.308;2023-06-26T08:17:04;101639.66;;;11.96;100.00
69058;BME280;56128;37.534;-122.308;2023-06-26T08:19:30;101642.34;;;11.96;100.00
69058;BME280;56128;37.534;-122.308;2023-06-26T08:21:56;101637.91;;;11.95;100.00
69058;BME280;56128;37.534;-122.308;2023-06-26T08:24:22;101635.22;;;11.95;100.00
69058;BME280;56128;37.534;-122.308;2023-06-26T08:26:48;101634.44;;;11.93;100.00
69058;BME280;56128;37.534;-122.308;2023-06-26T08:29:15;101638.84;;;11.94;100.00
69058;BME280;56128;37.534;-122.308;2023-06-26T08:31:42;101633.50;;;11.94;100.00
69058;BME280;56128;37.534;-122.308;2023-06-26T08:34:09;101629.94;;;11.93;100.00
69058;BME280;56128;37.534;-122.308;2023-06-26T08:36:35;101623.19;;;11.88;100.00
69058;BME280;56128;37.534;-122.308;2023-06-26T08:39:02;101624.69;;;11.92;100.00
69058;BME280;56128;37.534;-122.308;2023-06-26T08:41:30;101625.63;;;11.91;100.00
69058;BME280;56128;37.534;-122.308;2023-06-26T08:43:57;101622.94;;;11.91;100.00
69058;BME280;56128;37.534;-122.308;2023-06-26T08:46:23;101608.81;;;11.89;100.00
69058;BME280;56128;37.534;-122.308;2023-06-26T08:48:55;101611.38;;;11.90;100.00
69058;BME280;56128;37.534;-122.308;2023-06-26T08:51:23;101615.69;;;11.93;100.00
69058;BME280;56128;37.534;-122.308;2023-06-26T08:53:59;101611.28;;;11.92;100.00
69058;BME280;56128;37.534;-122.308;2023-06-26T08:56:35;101609.34;;;11.94;100.00
69058;BME280;56128;37.534;-122.308;2023-06-26T08:59:02;101610.31;;;11.93;100.00
69058;BME280;56128;37.534;-122.308;2023-06-26T09:01:28;101603.22;;;11.92;100.00
69058;BME280;56128;37.534;-122.308;2023-06-26T09:03:54;101606.78;;;11.92;100.00
69058;BME280;56128;37.534;-122.308;2023-06-26T09:06:21;101607.84;;;11.90;100.00
69058;BME280;56128;37.534;-122.308;2023-06-26T09:08:47;101616.84;;;11.89;100.00
69058;BME280;56128;37.534;-122.308;2023-06-26T09:11:13;101605.16;;;11.90;100.00
69058;BME280;56128;37.534;-122.308;2023-06-26T09:13:40;101601.50;;;11.91;100.00
69058;BME280;56128;37.534;-122.308;2023-06-26T09:16:07;101605.91;;;11.92;100.00
69058;BME280;56128;37.534;-122.308;2023-06-26T09:18:34;101604.41;;;11.88;100.00
69058;BME280;56128;37.534;-122.308;2023-06-26T09:21:03;101605.91;;;11.92;100.00
69058;BME280;56128;37.534;-122.308;2023-06-26T09:23:31;101597.97;;;11.90;100.00
69058;BME280;56128;37.534;-122.308;2023-06-26T09:25:58;101597.22;;;11.88;100.00
69058;BME280;56128;37.534;-122.308;2023-06-26T09:28:24;101599.81;;;11.90;100.00
69058;BME280;56128;37.534;-122.308;2023-06-26T09:30:51;101595.41;;;11.89;100.00
69058;BME280;56128;37.534;-122.308;2023-06-26T09:33:19;101597.22;;;11.88;100.00
69058;BME280;56128;37.534;-122.308;2023-06-26T09:35:46;101596.13;;;11.91;100.00
69058;BME280;56128;37.534;-122.308;2023-06-26T09:38:13;101592.84;;;11.87;100.00
69058;BME280;56128;37.534;-122.308;2023-06-26T09:40:40;101589.06;;;11.90;100.00
69058;BME280;56128;37.534;-122.308;2023-06-26T09:43:08;101587.13;;;11.92;100.00
69058;BME280;56128;37.534;-122.308;2023-06-26T09:45:35;101581.13;;;11.88;100.00
69058;BME280;56128;37.534;-122.308;2023-06-26T09:48:03;101583.72;;;11.90;100.00
69058;BME280;56128;37.534;-122.308;2023-06-26T09:50:29;101580.03;;;11.91;100.00
69058;BME280;56128;37.534;-122.308;2023-06-26T09:52:58;101585.41;;;11.91;100.00
69058;BME280;56128;37.534;-122.308;2023-06-26T09:55:25;101581.03;;;11.90;100.00
69058;BME280;56128;37.534;-122.308;2023-06-26T09:57:52;101578.44;;;11.88;100.00
69058;BME280;56128;37.534;-122.308;2023-06-26T10:00:19;101581.13;;;11.88;100.00
69058;BME280;56128;37.534;-122.308;2023-06-26T10:02:45;101580.16;;;11.89;100.00
69058;BME280;56128;37.534;-122.308;2023-06-26T10:05:11;101578.34;;;11.90;100.00
69058;BME280;56128;37.534;-122.308;2023-06-26T10:07:38;101577.59;;;11.88;100.00
69058;BME280;56128;37.534;-122.308;2023-06-26T10:10:05;101573.84;;;11.90;100.00
69058;BME280;56128;37.534;-122.308;2023-06-26T10:12:33;101570.38;;;11.88;100.00
69058;BME280;56128;37.534;-122.308;2023-06-26T10:15:02;101578.53;;;11.86;100.00
69058;BME280;56128;37.534;-122.308;2023-06-26T10:17:34;101577.59;;;11.88;100.00
69058;BME280;56128;37.534;-122.308;2023-06-26T10:20:02;101574.13;;;11.85;100.00
69058;BME280;56128;37.534;-122.308;2023-06-26T10:22:33;101567.81;;;11.86;100.00
69058;BME280;56128;37.534;-122.308;2023-06-26T10:25:03;101570.63;;;11.85;100.00
69058;BME280;56128;37.534;-122.308;2023-06-26T10:27:37;101575.03;;;11.86;100.00
69058;BME280;56128;37.534;-122.308;2023-06-26T10:30:05;101566.09;;;11.85;100.00
69058;BME280;56128;37.534;-122.308;2023-06-26T10:32:33;101568.13;;;11.82;100.00
69058;BME280;56128;37.534;-122.308;2023-06-26T10:34:59;101560.97;;;11.82;100.00
69058;BME280;56128;37.534;-122.308;2023-06-26T10:37:41;101559.00;;;11.84;100.00
69058;BME280;56128;37.534;-122.308;2023-06-26T10:40:10;101554.63;;;11.83;100.00
69058;BME280;56128;37.534;-122.308;2023-06-26T10:42:38;101563.53;;;11.84;100.00
69058;BME280;56128;37.534;-122.308;2023-06-26T10:45:20;101558.16;;;11.84;100.00
69058;BME280;56128;37.534;-122.308;2023-06-26T10:47:48;101559.13;;;11.83;100.00
69058;BME280;56128;37.534;-122.308;2023-06-26T10:50:20;101555.38;;;11.85;100.00
69058;BME280;56128;37.534;-122.308;2023-06-26T10:56:03;101560.09;;;11.82;100.00
69058;BME280;56128;37.534;-122.308;2023-06-26T11:01:18;101555.59;;;11.82;100.00
69058;BME280;56128;37.534;-122.308;2023-06-26T11:04:00;101556.56;;;11.81;100.00
69058;BME280;56128;37.534;-122.308;2023-06-26T11:06:29;101559.47;;;11.78;100.00
69058;BME280;56128;37.534;-122.308;2023-06-26T11:14:20;101565.56;;;11.80;100.00
69058;BME280;56128;37.534;-122.308;2023-06-26T11:16:47;101562.03;;;11.80;100.00
69058;BME280;56128;37.534;-122.308;2023-06-26T11:19:16;101569.13;;;11.81;100.00
69058;BME280;56128;37.534;-122.308;2023-06-26T11:21:42;101564.81;;;11.78;100.00
69058;BME280;56128;37.534;-122.308;2023-06-26T11:24:11;101556.78;;;11.78;100.00
69058;BME280;56128;37.534;-122.308;2023-06-26T11:26:42;101547.84;;;11.78;100.00
69058;BME280;56128;37.534;-122.308;2023-06-26T11:29:09;101559.47;;;11.78;100.00
69058;BME280;56128;37.534;-122.308;2023-06-26T11:31:37;101554.19;;;11.77;100.00
69058;BME280;56128;37.534;-122.308;2023-06-26T11:34:08;101554.41;;;11.74;100.00
69058;BME280;56128;37.534;-122.308;2023-06-26T11:36:37;101546.13;;;11.77;100.00
69058;BME280;56128;37.534;-122.308;2023-06-26T11:39:06;101548.09;;;11.75;100.00
69058;BME280;56128;37.534;-122.308;2023-06-26T11:41:34;101550.00;;;11.73;100.00
69058;BME280;56128;37.534;-122.308;2023-06-26T11:44:04;101550.13;;;11.71;100.00
69058;BME280;56128;37.534;-122.308;2023-06-26T11:46:31;101543.69;;;11.74;100.00
69058;BME280;56128;37.534;-122.308;2023-06-26T11:48:58;101545.47;;;11.73;100.00
69058;BME280;56128;37.534;-122.308;2023-06-26T11:51:27;101548.16;;;11.73;100.00
69058;BME280;56128;37.534;-122.308;2023-06-26T11:53:54;101549.25;;;11.70;100.00
69058;BME280;56128;37.534;-122.308;2023-06-26T11:56:20;101547.44;;;11.71;100.00
69058;BME280;56128;37.534;-122.308;2023-06-26T11:59:05;101553.63;;;11.72;100.00
69058;BME280;56128;37.534;-122.308;2023-06-26T12:04:03;101546.66;;;11.69;100.00
69058;BME280;56128;37.534;-122.308;2023-06-26T12:06:31;101551.91;;;11.70;100.00
69058;BME280;56128;37.534;-122.308;2023-06-26T12:09:00;101543.22;;;11.67;100.00
69058;BME280;56128;37.534;-122.308;2023-06-26T12:11:27;101545.81;;;11.68;100.00
69058;BME280;56128;37.534;-122.308;2023-06-26T12:13:57;101545.91;;;11.67;100.00
69058;BME280;56128;37.534;-122.308;2023-06-26T12:16:24;101553.88;;;11.68;100.00
69058;BME280;56128;37.534;-122.308;2023-06-26T12:18:51;101544.22;;;11.66;100.00
69058;BME280;56128;37.534;-122.308;2023-06-26T12:24:13;101544.00;;;11.69;100.00
69058;BME280;56128;37.534;-122.308;2023-06-26T12:26:49;101540.34;;;11.70;100.00
69058;BME280;56128;37.534;-122.308;2023-06-26T12:29:19;101543.16;;;11.68;100.00
69058;BME280;56128;37.534;-122.308;2023-06-26T12:31:50;101545.91;;;11.67;100.00
69058;BME280;56128;37.534;-122.308;2023-06-26T12:34:19;101545.81;;;11.68;100.00